Time;durP1;ratioP1;P1;durP2;ratioP2;P2;SDS_P1;SDS_P2;PMS_P1;PMS_P2;Temp;Humidity;BMP_temperature;BMP_pressure;BME280_temperature;BME280_humidity;BME280_pressure;Samples;Min_cycle;Max_cycle;Signal;HPM_P1;HPM_P2
2022/10/24 00:01:09;;;;;;;6.68;4.25;;;13.90;99.90;;;;;;4999716;28;20046;-72
2022/10/24 00:03:34;;;;;;;7.78;4.60;;;13.90;99.90;;;;;;4998897;28;20045;-72
2022/10/24 00:06:00;;;;;;;7.28;4.38;;;13.90;99.90;;;;;;4996284;28;20026;-72
2022/10/24 00:08:26;;;;;;;9.98;5.13;;;13.90;99.90;;;;;;5001272;28;20033;-72
2022/10/24 00:10:51;;;;;;;10.70;5.20;;;13.90;99.90;;;;;;4995475;28;20049;-72
2022/10/24 00:13:17;;;;;;;7.07;5.07;;;13.90;99.90;;;;;;5002825;28;20028;-72
2022/10/24 00:15:46;;;;;;;10.48;5.00;;;13.80;99.90;;;;;;4998564;28;20029;-72
2022/10/24 00:18:11;;;;;;;9.75;6.00;;;13.80;99.90;;;;;;5004179;28;20384;-72
2022/10/24 00:20:37;;;;;;;9.25;5.22;;;13.80;99.90;;;;;;4995779;28;20032;-72
2022/10/24 00:23:03;;;;;;;7.22;3.95;;;13.80;99.90;;;;;;4997942;28;20485;-72
2022/10/24 00:25:29;;;;;;;9.52;4.15;;;13.70;99.90;;;;;;5002771;28;20037;-73
2022/10/24 00:27:54;;;;;;;9.68;4.88;;;13.80;99.90;;;;;;5003458;28;20030;-73
2022/10/24 00:30:20;;;;;;;12.57;5.18;;;13.70;99.90;;;;;;4997443;28;20400;-72
2022/10/24 00:32:46;;;;;;;8.25;4.72;;;13.70;99.90;;;;;;4998545;28;20037;-72
2022/10/24 00:35:11;;;;;;;10.90;5.30;;;13.70;99.90;;;;;;4998116;28;20500;-72
2022/10/24 00:37:37;;;;;;;9.90;5.60;;;13.70;99.90;;;;;;5004555;28;20116;-72
2022/10/24 00:40:05;;;;;;;10.88;5.03;;;13.70;99.90;;;;;;4996747;28;20523;-72
2022/10/24 00:42:30;;;;;;;9.02;5.60;;;13.70;99.90;;;;;;4995192;28;20030;-72
2022/10/24 00:44:56;;;;;;;12.35;4.78;;;13.70;99.90;;;;;;4999909;28;20378;-72
2022/10/24 00:47:25;;;;;;;9.10;5.32;;;13.80;99.90;;;;;;4995342;28;20030;-72
2022/10/24 00:50:09;;;;;;;8.25;4.85;;;13.80;99.90;;;;;;4999737;28;20041;-73
2022/10/24 00:52:38;;;;;;;11.57;4.90;;;13.80;99.90;;;;;;4994080;28;20030;-72
2022/10/24 00:55:06;;;;;;;9.52;4.93;;;13.80;99.90;;;;;;5003435;28;20037;-72
2022/10/24 00:57:45;;;;;;;10.30;4.88;;;13.80;99.90;;;;;;5001045;28;20117;-72
2022/10/24 01:00:26;;;;;;;11.73;5.32;;;13.80;99.90;;;;;;5006801;28;20026;-73
2022/10/24 01:02:52;;;;;;;12.45;4.72;;;13.90;99.90;;;;;;4997407;28;20511;-73
2022/10/24 01:05:20;;;;;;;7.65;4.57;;;13.90;99.90;;;;;;5009261;28;20035;-72
2022/10/24 01:07:52;;;;;;;12.02;5.63;;;13.90;99.90;;;;;;5000334;28;20436;-72
2022/10/24 01:10:39;;;;;;;6.32;4.22;;;13.90;99.90;;;;;;4996157;28;20034;-72
2022/10/24 01:13:31;;;;;;;7.88;4.43;;;13.90;99.90;;;;;;5001282;28;20026;-72
2022/10/24 01:16:15;;;;;;;12.07;5.45;;;13.80;99.90;;;;;;5003774;28;20408;-72
2022/10/24 01:19:08;;;;;;;9.27;4.93;;;13.90;99.90;;;;;;5002023;28;20476;-72
2022/10/24 01:22:10;;;;;;;9.48;4.47;;;14.00;99.90;;;;;;4996587;28;20095;-72
2022/10/24 01:24:41;;;;;;;8.95;4.45;;;13.90;99.90;;;;;;5006666;28;20092;-72
2022/10/24 01:27:27;;;;;;;10.00;4.45;;;13.90;99.90;;;;;;4996459;28;20044;-72
2022/10/24 01:29:53;;;;;;;8.38;4.57;;;13.90;99.90;;;;;;4997342;28;20022;-72
2022/10/24 01:32:47;;;;;;;9.00;4.68;;;14.00;99.90;;;;;;4989447;28;20026;-72
2022/10/24 01:35:12;;;;;;;14.57;5.13;;;14.00;99.90;;;;;;4997293;28;20038;-71
2022/10/24 01:37:53;;;;;;;8.80;4.82;;;14.00;99.90;;;;;;4993152;28;20483;-72
2022/10/24 01:40:26;;;;;;;9.32;4.70;;;13.90;99.90;;;;;;5004317;28;20033;-72
2022/10/24 01:42:55;;;;;;;8.25;4.60;;;13.60;99.90;;;;;;4999820;28;20092;-72
2022/10/24 01:45:29;;;;;;;7.50;4.60;;;13.60;99.90;;;;;;5000915;28;20026;-72
2022/10/24 01:47:58;;;;;;;8.02;4.18;;;13.70;99.90;;;;;;4995879;28;20065;-72
2022/10/24 01:50:25;;;;;;;7.28;4.30;;;13.80;99.90;;;;;;4991640;28;20042;-72
2022/10/24 01:52:54;;;;;;;11.35;5.10;;;13.90;99.90;;;;;;5002757;28;20073;-72
2022/10/24 01:55:20;;;;;;;10.85;4.70;;;14.00;99.90;;;;;;5001959;28;20042;-72
2022/10/24 01:57:46;;;;;;;9.02;4.70;;;13.90;99.90;;;;;;4994385;28;20054;-72
2022/10/24 02:00:19;;;;;;;6.97;4.43;;;13.80;99.90;;;;;;4996915;28;20069;-72
2022/10/24 02:02:56;;;;;;;10.40;4.15;;;13.90;99.90;;;;;;4991308;28;20085;-72
2022/10/24 02:05:29;;;;;;;14.10;5.10;;;13.90;99.90;;;;;;5000266;28;20034;-72
2022/10/24 02:08:01;;;;;;;10.85;4.88;;;13.90;99.90;;;;;;4999550;28;20026;-72
2022/10/24 02:10:31;;;;;;;7.07;3.97;;;13.80;99.90;;;;;;4992674;28;20026;-72
2022/10/24 02:13:04;;;;;;;15.18;5.05;;;13.90;99.90;;;;;;5002929;28;20481;-72
2022/10/24 02:15:35;;;;;;;12.13;4.80;;;13.90;99.90;;;;;;4993450;28;20143;-72
2022/10/24 02:18:01;;;;;;;12.68;4.68;;;14.00;99.90;;;;;;4997026;28;20062;-72
2022/10/24 02:20:53;;;;;;;10.43;4.47;;;13.90;99.90;;;;;;4997766;28;20022;-72
2022/10/24 02:23:24;;;;;;;10.48;4.00;;;13.90;99.90;;;;;;5005027;28;20099;-72
2022/10/24 02:25:53;;;;;;;9.82;4.40;;;14.00;99.90;;;;;;5007372;28;20033;-71
2022/10/24 02:28:22;;;;;;;9.30;4.07;;;14.10;99.90;;;;;;4997094;28;20432;-72
2022/10/24 02:31:01;;;;;;;8.60;4.70;;;14.10;99.90;;;;;;4995563;28;20026;-72
2022/10/24 02:33:29;;;;;;;12.80;5.13;;;14.10;99.90;;;;;;4998645;28;20528;-72
2022/10/24 02:35:55;;;;;;;10.00;4.70;;;14.10;99.90;;;;;;4999062;28;20053;-72
2022/10/24 02:38:27;;;;;;;10.13;4.28;;;14.10;99.90;;;;;;4990458;28;20366;-72
2022/10/24 02:40:54;;;;;;;9.25;4.55;;;14.10;99.90;;;;;;5000426;28;20444;-72
2022/10/24 02:43:21;;;;;;;10.05;5.25;;;14.20;99.90;;;;;;4998557;28;20036;-72
2022/10/24 02:45:50;;;;;;;8.48;5.25;;;14.10;99.90;;;;;;4991515;28;20034;-72
2022/10/24 02:48:20;;;;;;;8.85;4.38;;;14.10;99.90;;;;;;4995961;28;20108;-72
2022/10/24 02:50:46;;;;;;;11.75;4.85;;;14.20;99.90;;;;;;5006910;28;20030;-72
2022/10/24 02:53:14;;;;;;;7.35;4.32;;;14.10;99.90;;;;;;4996777;28;20038;-71
2022/10/24 02:55:40;;;;;;;9.70;4.78;;;14.20;99.90;;;;;;5003503;28;20156;-72
2022/10/24 02:58:05;;;;;;;8.80;5.03;;;14.20;99.90;;;;;;4998900;28;20480;-72
2022/10/24 03:00:31;;;;;;;10.40;4.72;;;14.20;99.90;;;;;;5006621;28;20054;-70
2022/10/24 03:02:57;;;;;;;13.55;5.93;;;14.20;99.90;;;;;;4990280;28;20085;-70
2022/10/24 03:05:22;;;;;;;10.45;4.65;;;14.20;99.90;;;;;;4986823;28;20026;-70
2022/10/24 03:07:48;;;;;;;9.52;4.85;;;14.10;99.90;;;;;;4992714;28;20099;-71
2022/10/24 03:10:14;;;;;;;9.13;3.80;;;14.10;99.90;;;;;;4995076;28;20029;-70
2022/10/24 03:12:40;;;;;;;17.17;5.10;;;14.10;99.90;;;;;;4992992;28;20041;-71
2022/10/24 03:15:06;;;;;;;10.25;4.65;;;14.10;99.90;;;;;;4995607;28;20034;-71
2022/10/24 03:17:32;;;;;;;7.82;4.32;;;14.00;99.90;;;;;;4990858;28;20156;-70
2022/10/24 03:19:57;;;;;;;13.13;4.75;;;13.90;99.90;;;;;;4996095;28;20142;-70
2022/10/24 03:22:23;;;;;;;9.18;4.30;;;13.80;99.90;;;;;;4997082;28;20033;-70
2022/10/24 03:24:49;;;;;;;8.73;4.05;;;13.70;99.90;;;;;;4994471;28;20070;-70
2022/10/24 03:27:15;;;;;;;6.80;4.50;;;13.80;99.90;;;;;;4987954;28;20054;-70
2022/10/24 03:29:41;;;;;;;10.52;5.28;;;13.90;99.90;;;;;;4986302;28;20029;-70
2022/10/24 03:32:07;;;;;;;10.25;4.22;;;13.80;99.90;;;;;;4994926;28;20026;-70
2022/10/24 03:34:32;;;;;;;8.57;5.00;;;13.80;99.90;;;;;;4991146;28;20073;-70
2022/10/24 03:36:58;;;;;;;8.77;4.45;;;13.80;99.90;;;;;;4997677;28;20026;-70
2022/10/24 03:39:24;;;;;;;8.57;4.03;;;13.80;99.90;;;;;;4987377;28;20451;-71
2022/10/24 03:41:49;;;;;;;8.18;4.35;;;13.80;99.90;;;;;;4993841;28;20062;-70
2022/10/24 03:44:15;;;;;;;9.10;4.55;;;13.80;99.90;;;;;;5000100;28;20092;-70
2022/10/24 03:46:41;;;;;;;10.25;4.90;;;13.80;99.90;;;;;;4994121;28;20468;-70
2022/10/24 03:49:06;;;;;;;10.63;5.03;;;13.70;99.90;;;;;;4997350;28;20101;-70
2022/10/24 03:51:32;;;;;;;10.95;4.80;;;13.80;99.90;;;;;;4990847;28;20030;-70
2022/10/24 03:53:57;;;;;;;10.98;4.63;;;13.80;99.90;;;;;;4994090;28;20046;-70
2022/10/24 03:56:23;;;;;;;7.82;4.70;;;13.90;99.90;;;;;;4996110;28;20030;-70
2022/10/24 03:58:49;;;;;;;9.50;5.10;;;13.90;99.90;;;;;;4995753;28;20045;-70
2022/10/24 04:01:17;;;;;;;14.95;5.30;;;13.90;99.90;;;;;;4989803;28;20026;-70
2022/10/24 04:03:45;;;;;;;9.23;5.40;;;13.90;99.90;;;;;;4986140;28;20053;-70
2022/10/24 04:06:12;;;;;;;10.02;5.38;;;14.00;99.90;;;;;;4989917;28;20112;-70
2022/10/24 04:08:37;;;;;;;11.18;4.03;;;14.00;99.90;;;;;;5003136;28;20022;-70
2022/10/24 04:11:04;;;;;;;11.23;4.85;;;13.90;99.90;;;;;;4994537;28;20452;-70
2022/10/24 04:13:30;;;;;;;10.10;5.15;;;13.90;99.90;;;;;;4993198;28;20027;-70
2022/10/24 04:15:56;;;;;;;8.60;4.82;;;13.80;99.90;;;;;;4996020;28;20097;-70
2022/10/24 04:18:21;;;;;;;11.30;4.72;;;13.80;99.90;;;;;;4997441;28;20021;-70
2022/10/24 04:20:47;;;;;;;12.07;4.93;;;13.90;99.90;;;;;;4991786;28;20045;-70
2022/10/24 04:23:13;;;;;;;11.70;5.13;;;13.90;99.90;;;;;;4998283;28;20033;-70
2022/10/24 04:25:39;;;;;;;12.10;5.13;;;13.80;99.90;;;;;;4986104;28;20034;-70
2022/10/24 04:28:05;;;;;;;11.57;4.97;;;13.80;99.90;;;;;;4995434;28;20065;-70
2022/10/24 04:30:31;;;;;;;16.13;5.75;;;13.70;99.90;;;;;;4993442;28;20519;-70
2022/10/24 04:32:57;;;;;;;12.00;4.68;;;13.70;99.90;;;;;;5000433;28;20042;-70
2022/10/24 04:35:24;;;;;;;11.18;5.72;;;13.80;99.90;;;;;;4989788;28;20130;-70
2022/10/24 04:37:50;;;;;;;7.80;4.28;;;13.70;99.90;;;;;;4989351;28;20026;-70
2022/10/24 04:40:16;;;;;;;14.02;4.38;;;13.80;99.90;;;;;;4989286;28;20413;-71
2022/10/24 04:42:41;;;;;;;9.77;5.03;;;13.80;99.90;;;;;;4992369;28;20058;-70
2022/10/24 04:45:08;;;;;;;8.85;4.72;;;13.90;99.90;;;;;;4996066;28;20445;-70
2022/10/24 04:47:33;;;;;;;11.43;4.72;;;13.90;99.90;;;;;;4988521;28;20124;-70
2022/10/24 04:49:59;;;;;;;10.52;5.07;;;13.80;99.90;;;;;;4986498;28;20586;-70
2022/10/24 04:52:24;;;;;;;14.70;5.05;;;13.80;99.90;;;;;;4991676;28;20034;-70
2022/10/24 04:54:50;;;;;;;12.73;5.15;;;13.80;99.90;;;;;;4992198;28;20034;-70
2022/10/24 04:57:16;;;;;;;14.27;6.50;;;13.80;99.90;;;;;;4987040;28;20034;-70
2022/10/24 04:59:41;;;;;;;9.40;4.57;;;13.80;99.90;;;;;;4988796;28;20048;-70
2022/10/24 05:02:07;;;;;;;12.45;5.40;;;13.90;99.90;;;;;;4987072;28;20109;-70
2022/10/24 05:04:33;;;;;;;8.50;4.72;;;13.80;99.90;;;;;;5000081;28;20026;-70
2022/10/24 05:06:58;;;;;;;11.88;5.28;;;13.80;99.90;;;;;;4998605;28;20023;-70
2022/10/24 05:09:24;;;;;;;12.70;5.90;;;13.80;99.90;;;;;;4993867;28;20444;-70
2022/10/24 05:11:50;;;;;;;10.68;4.88;;;13.80;99.90;;;;;;4996245;28;20030;-70
2022/10/24 05:14:15;;;;;;;9.85;4.95;;;13.80;99.90;;;;;;4985043;28;20034;-70
2022/10/24 05:16:41;;;;;;;11.30;5.55;;;13.70;99.90;;;;;;4992392;28;20054;-71
2022/10/24 05:19:07;;;;;;;9.90;4.80;;;13.80;99.90;;;;;;4992935;28;20035;-70
2022/10/24 05:21:32;;;;;;;15.00;6.15;;;13.80;99.90;;;;;;4990946;28;20022;-70
2022/10/24 05:23:58;;;;;;;15.07;5.53;;;13.80;99.90;;;;;;4984517;28;20052;-70
2022/10/24 05:26:24;;;;;;;11.35;4.97;;;13.90;99.90;;;;;;4982486;28;20396;-71
2022/10/24 05:28:50;;;;;;;18.02;5.55;;;13.90;99.90;;;;;;4985696;28;20038;-71
2022/10/24 05:31:16;;;;;;;11.88;5.80;;;14.00;99.90;;;;;;4988680;28;20030;-70
2022/10/24 05:33:41;;;;;;;14.35;5.22;;;14.10;99.90;;;;;;4986909;28;20461;-70
2022/10/24 05:36:07;;;;;;;15.60;5.18;;;14.00;99.90;;;;;;4987446;28;20030;-71
2022/10/24 05:38:33;;;;;;;13.82;5.63;;;14.00;99.90;;;;;;4986827;28;20034;-70
2022/10/24 05:40:58;;;;;;;9.52;4.95;;;14.00;99.90;;;;;;4987403;28;20457;-70
2022/10/24 05:43:24;;;;;;;12.18;4.95;;;13.90;99.90;;;;;;4986865;28;20038;-70
2022/10/24 05:45:50;;;;;;;16.17;5.22;;;14.00;99.90;;;;;;4990742;28;20036;-70
2022/10/24 05:48:16;;;;;;;12.45;5.18;;;14.00;99.90;;;;;;4999137;28;20113;-70
2022/10/24 05:50:42;;;;;;;15.88;5.30;;;14.00;99.90;;;;;;4996906;28;20037;-70
2022/10/24 05:53:08;;;;;;;12.73;5.00;;;13.90;99.90;;;;;;4991882;28;20073;-70
2022/10/24 05:55:34;;;;;;;13.32;5.72;;;14.00;99.90;;;;;;4986786;28;20059;-70
2022/10/24 05:58:00;;;;;;;17.45;5.28;;;13.90;99.90;;;;;;5004038;28;20030;-70
2022/10/24 06:00:26;;;;;;;11.18;5.18;;;13.90;99.90;;;;;;5006647;28;20091;-70
2022/10/24 06:02:52;;;;;;;13.30;4.65;;;13.90;99.90;;;;;;4986403;28;20030;-70
2022/10/24 06:05:18;;;;;;;16.77;5.28;;;13.90;99.90;;;;;;4986449;28;20038;-70
2022/10/24 06:07:44;;;;;;;12.00;6.05;;;13.90;99.90;;;;;;4993393;28;20551;-70
2022/10/24 06:10:11;;;;;;;11.00;5.35;;;13.90;99.90;;;;;;4993639;28;20029;-70
2022/10/24 06:12:37;;;;;;;14.20;5.60;;;14.00;99.90;;;;;;4994263;28;20034;-71
2022/10/24 06:15:05;;;;;;;14.93;6.05;;;14.10;99.90;;;;;;4988154;28;20069;-70
2022/10/24 06:17:31;;;;;;;17.80;5.57;;;14.10;99.90;;;;;;4988480;28;20078;-71
2022/10/24 06:19:57;;;;;;;12.48;6.20;;;14.20;99.90;;;;;;4995191;28;20512;-70
2022/10/24 06:22:24;;;;;;;10.88;5.82;;;14.20;99.90;;;;;;5009939;28;20044;-70
2022/10/24 06:24:50;;;;;;;14.32;5.45;;;14.10;99.90;;;;;;4999711;28;20042;-70
2022/10/24 06:27:15;;;;;;;19.15;7.43;;;14.00;99.90;;;;;;4998069;28;20037;-71
2022/10/24 06:29:41;;;;;;;12.93;6.40;;;14.00;99.90;;;;;;4988346;28;20092;-71
2022/10/24 06:32:07;;;;;;;9.95;6.20;;;14.00;99.90;;;;;;4988985;28;20030;-70
2022/10/24 06:34:34;;;;;;;15.80;7.13;;;14.10;99.90;;;;;;5000751;28;20049;-70
2022/10/24 06:37:00;;;;;;;11.40;5.63;;;14.10;99.90;;;;;;4993219;28;20048;-70
2022/10/24 06:39:25;;;;;;;12.82;5.53;;;14.10;99.90;;;;;;4988347;28;20464;-70
2022/10/24 06:41:51;;;;;;;10.45;5.60;;;14.00;99.90;;;;;;4990160;28;20026;-70
2022/10/24 06:44:17;;;;;;;11.82;5.30;;;14.10;99.90;;;;;;4998006;28;20350;-70
2022/10/24 06:46:43;;;;;;;13.85;6.45;;;14.10;99.90;;;;;;4987125;28;20030;-70
2022/10/24 06:49:08;;;;;;;11.95;5.85;;;14.20;99.90;;;;;;4992279;28;20076;-71
2022/10/24 06:51:34;;;;;;;15.23;6.47;;;14.30;99.90;;;;;;4992007;28;20030;-70
2022/10/24 06:54:00;;;;;;;11.73;6.15;;;14.40;99.90;;;;;;4986886;28;20031;-70
2022/10/24 06:56:26;;;;;;;14.95;6.32;;;14.50;99.90;;;;;;4995318;28;20040;-70
2022/10/24 06:58:52;;;;;;;14.85;5.90;;;14.50;99.90;;;;;;4987948;28;20030;-70
2022/10/24 07:01:22;;;;;;;10.48;6.15;;;14.60;99.90;;;;;;4992128;28;20035;-70
2022/10/24 07:03:48;;;;;;;14.52;6.68;;;14.70;99.90;;;;;;4986750;28;20042;-70
2022/10/24 07:06:23;;;;;;;14.60;5.97;;;14.70;99.90;;;;;;4982479;28;20030;-70
2022/10/24 07:08:51;;;;;;;18.20;6.20;;;14.80;99.90;;;;;;4996707;28;20053;-71
2022/10/24 07:11:16;;;;;;;12.85;6.55;;;14.80;99.90;;;;;;4987601;28;20124;-71
2022/10/24 07:13:42;;;;;;;17.08;5.40;;;14.80;99.90;;;;;;4988624;28;20421;-70
2022/10/24 07:16:07;;;;;;;11.43;5.85;;;14.70;99.90;;;;;;4987767;28;20058;-70
2022/10/24 07:18:33;;;;;;;15.77;6.25;;;14.80;99.90;;;;;;4994448;28;20606;-70
2022/10/24 07:21:04;;;;;;;17.35;6.25;;;14.70;99.90;;;;;;4983521;28;20038;-71
2022/10/24 07:23:31;;;;;;;10.90;5.15;;;14.70;99.90;;;;;;4987331;28;20057;-70
2022/10/24 07:26:09;;;;;;;12.63;7.13;;;14.60;99.90;;;;;;4992648;28;20025;-72
2022/10/24 07:28:35;;;;;;;13.30;6.55;;;14.50;99.90;;;;;;4989643;28;20100;-70
2022/10/24 07:31:02;;;;;;;16.40;6.72;;;14.50;99.90;;;;;;4992585;28;20030;-69
2022/10/24 07:33:28;;;;;;;9.73;5.72;;;14.50;99.90;;;;;;4986401;28;20037;-70
2022/10/24 07:35:54;;;;;;;14.77;6.20;;;14.50;99.90;;;;;;4990834;28;20038;-70
2022/10/24 07:38:21;;;;;;;13.27;5.28;;;14.60;99.90;;;;;;4988041;28;20465;-70
2022/10/24 07:40:47;;;;;;;13.02;5.80;;;14.70;99.90;;;;;;4995403;28;20042;-70
2022/10/24 07:43:14;;;;;;;15.50;6.60;;;14.80;99.90;;;;;;4991734;28;20036;-70
2022/10/24 07:45:41;;;;;;;9.85;5.72;;;14.80;99.90;;;;;;4992336;28;20088;-70
2022/10/24 07:48:07;;;;;;;15.35;6.40;;;14.50;99.90;;;;;;4987164;28;20052;-70
2022/10/24 07:50:34;;;;;;;15.23;6.53;;;14.50;99.90;;;;;;4996669;28;20022;-70
2022/10/24 07:53:00;;;;;;;12.43;6.18;;;14.50;99.90;;;;;;4995192;28;20109;-70
2022/10/24 07:55:26;;;;;;;14.05;6.20;;;14.60;99.90;;;;;;4988288;28;20037;-70
2022/10/24 07:57:51;;;;;;;11.02;5.72;;;14.70;99.90;;;;;;4994694;28;20117;-70
2022/10/24 08:00:17;;;;;;;9.90;5.70;;;14.80;99.90;;;;;;4998228;28;20030;-70
2022/10/24 08:02:43;;;;;;;14.85;6.57;;;14.80;99.90;;;;;;4993615;28;20029;-70
2022/10/24 08:05:10;;;;;;;11.18;5.90;;;14.80;99.90;;;;;;4989462;28;20066;-70
2022/10/24 08:07:37;;;;;;;12.77;5.63;;;14.90;99.90;;;;;;4989014;28;20497;-70
2022/10/24 08:10:04;;;;;;;17.10;5.72;;;14.80;99.90;;;;;;4986786;28;20036;-70
2022/10/24 08:12:30;;;;;;;9.98;5.53;;;14.80;99.90;;;;;;4992149;28;20038;-70
2022/10/24 08:14:56;;;;;;;12.23;5.82;;;14.80;99.90;;;;;;5000536;28;20040;-70
2022/10/24 08:17:23;;;;;;;12.93;6.05;;;14.70;99.90;;;;;;4999297;28;20050;-70
2022/10/24 08:19:49;;;;;;;12.35;5.78;;;14.80;99.90;;;;;;4995370;28;20034;-70
2022/10/24 08:22:15;;;;;;;13.80;6.03;;;15.00;99.90;;;;;;4995181;28;20030;-70
2022/10/24 08:24:44;;;;;;;12.15;5.90;;;15.00;99.90;;;;;;4995353;28;20117;-70
2022/10/24 08:27:11;;;;;;;10.05;6.10;;;15.10;99.90;;;;;;4994366;28;20022;-70
2022/10/24 08:29:36;;;;;;;13.50;5.43;;;15.20;99.90;;;;;;4995110;28;20117;-70
2022/10/24 08:32:02;;;;;;;13.90;6.50;;;15.20;99.90;;;;;;4990645;28;20118;-70
2022/10/24 08:34:28;;;;;;;9.85;6.70;;;15.10;99.90;;;;;;4990614;28;20492;-70
2022/10/24 08:36:54;;;;;;;13.75;6.22;;;15.00;99.90;;;;;;4991721;28;20026;-70
2022/10/24 08:39:20;;;;;;;16.17;6.25;;;15.00;99.90;;;;;;4994410;28;20034;-70
2022/10/24 08:41:55;;;;;;;17.33;6.88;;;15.10;99.90;;;;;;4992266;28;20038;-70
2022/10/24 08:44:47;;;;;;;11.50;6.45;;;15.10;99.90;;;;;;4998007;28;20506;-70
2022/10/24 08:47:33;;;;;;;11.02;5.65;;;15.30;99.90;;;;;;4990708;28;20071;-70
2022/10/24 08:50:10;;;;;;;13.32;6.18;;;15.40;99.90;;;;;;4995763;28;20026;-70
2022/10/24 08:52:39;;;;;;;10.57;5.70;;;15.60;99.90;;;;;;4988093;28;20068;-70
2022/10/24 08:55:13;;;;;;;11.68;5.82;;;15.70;99.90;;;;;;4992064;28;20030;-70
2022/10/24 08:57:41;;;;;;;12.82;6.78;;;15.90;99.90;;;;;;4986544;28;20101;-70
2022/10/24 09:00:22;;;;;;;10.75;5.90;;;15.80;99.90;;;;;;4992331;28;20030;-70
2022/10/24 09:02:58;;;;;;;14.35;6.45;;;15.80;99.90;;;;;;4987815;28;20347;-70
2022/10/24 09:05:33;;;;;;;16.00;7.00;;;15.70;99.90;;;;;;4991069;28;20041;-70
2022/10/24 09:08:05;;;;;;;16.95;6.63;;;15.50;99.90;;;;;;4996005;28;20520;-70
2022/10/24 09:10:54;;;;;;;11.45;6.35;;;15.60;99.90;;;;;;4985583;28;20042;-70
2022/10/24 09:13:22;;;;;;;12.60;6.70;;;15.40;99.90;;;;;;4987633;28;20044;-70
2022/10/24 09:15:48;;;;;;;10.30;5.80;;;15.40;99.90;;;;;;4986426;28;20050;-70
2022/10/24 09:18:32;;;;;;;12.88;6.10;;;15.40;99.90;;;;;;4986928;28;20527;-70
2022/10/24 09:21:00;;;;;;;10.90;5.95;;;15.30;99.90;;;;;;4994899;28;20022;-70
2022/10/24 09:23:26;;;;;;;13.35;6.80;;;15.40;99.90;;;;;;4990447;28;20023;-70
2022/10/24 09:25:55;;;;;;;14.40;6.68;;;15.40;99.90;;;;;;4993026;28;20030;-70
2022/10/24 09:28:20;;;;;;;17.15;6.93;;;15.50;99.90;;;;;;4988335;28;20049;-70
2022/10/24 09:30:47;;;;;;;12.52;7.07;;;15.60;99.90;;;;;;4989551;28;20042;-70
2022/10/24 09:33:25;;;;;;;9.63;7.30;;;15.70;99.90;;;;;;4999367;28;20445;-70
2022/10/24 09:35:53;;;;;;;11.60;5.93;;;15.60;99.90;;;;;;4989797;28;20133;-70
2022/10/24 09:38:27;;;;;;;12.98;7.70;;;15.70;99.90;;;;;;4992487;28;20052;-70
2022/10/24 09:40:55;;;;;;;13.05;8.00;;;15.70;99.90;;;;;;4991535;28;20038;-70
2022/10/24 09:43:30;;;;;;;12.23;6.57;;;15.60;99.90;;;;;;4990591;28;20095;-70
2022/10/24 09:46:04;;;;;;;10.95;6.65;;;15.60;99.90;;;;;;4993286;28;20523;-70
2022/10/24 09:48:35;;;;;;;10.60;6.40;;;15.70;99.90;;;;;;4995154;28;20026;-70
2022/10/24 09:51:01;;;;;;;13.73;6.85;;;15.90;99.90;;;;;;4988891;28;20043;-70
2022/10/24 09:53:31;;;;;;;14.10;7.30;;;16.00;99.90;;;;;;4989020;28;20062;-70
2022/10/24 09:56:00;;;;;;;17.20;6.57;;;16.10;99.90;;;;;;4996365;28;20049;-70
2022/10/24 09:58:31;;;;;;;14.20;6.72;;;16.20;99.90;;;;;;4995945;28;20022;-70
2022/10/24 10:01:06;;;;;;;14.73;6.93;;;16.30;99.90;;;;;;4994774;28;20022;-70
2022/10/24 10:03:33;;;;;;;14.68;6.53;;;16.50;99.90;;;;;;4994829;28;20065;-70
2022/10/24 10:06:14;;;;;;;12.73;6.65;;;16.50;99.90;;;;;;4991291;28;20031;-70
2022/10/24 10:08:40;;;;;;;14.80;6.82;;;16.70;99.90;;;;;;4995404;28;20034;-71
2022/10/24 10:11:11;;;;;;;13.85;6.00;;;16.80;99.90;;;;;;4991360;28;20089;-70
2022/10/24 10:13:49;;;;;;;15.57;8.80;;;16.90;99.90;;;;;;4987821;28;20030;-70
2022/10/24 10:16:28;;;;;;;23.70;11.90;;;17.30;99.90;;;;;;4985836;28;20042;-70
2022/10/24 10:19:20;;;;;;;20.35;10.82;;;17.00;99.90;;;;;;4985668;28;20477;-70
2022/10/24 10:22:02;;;;;;;15.63;7.07;;;17.20;99.90;;;;;;4987708;28;20052;-70
2022/10/24 10:24:34;;;;;;;18.25;7.85;;;17.30;99.90;;;;;;4991071;28;20026;-70
2022/10/24 10:27:00;;;;;;;13.88;5.50;;;18.30;99.90;;;;;;4985978;28;20073;-70
2022/10/24 10:29:26;;;;;;;19.70;6.45;;;18.80;99.90;;;;;;4990458;28;20632;-70
2022/10/24 10:32:16;;;;;;;10.60;5.70;;;19.20;99.90;;;;;;4989667;28;20034;-70
2022/10/24 10:35:07;;;;;;;16.80;7.25;;;19.30;99.90;;;;;;4991444;28;20092;-70
2022/10/24 10:37:38;;;;;;;18.83;6.80;;;19.10;99.90;;;;;;4991235;28;20038;-71
2022/10/24 10:40:46;;;;;;;13.18;6.35;;;18.80;99.90;;;;;;4994029;28;20019;-70
2022/10/24 10:43:59;;;;;;;15.48;5.75;;;19.20;99.90;;;;;;5007980;28;20033;-71
2022/10/24 10:46:42;;;;;;;23.27;6.75;;;19.50;99.90;;;;;;4994022;28;20045;-70
2022/10/24 10:49:23;;;;;;;16.42;6.30;;;19.70;99.90;;;;;;4986814;28;20042;-70
2022/10/24 10:52:05;;;;;;;14.20;6.63;;;19.70;99.90;;;;;;4985461;28;20065;-70
2022/10/24 10:54:49;;;;;;;15.90;6.65;;;19.80;99.90;;;;;;4988121;28;20049;-70
2022/10/24 10:57:22;;;;;;;;;;;20.10;99.90;;;;;;4995707;28;20030;-71
2022/10/24 11:00:09;;;;;;;15.20;5.53;;;20.20;99.90;;;;;;4992229;28;19909;-70
2022/10/24 11:02:46;;;;;;;18.50;6.65;;;20.30;99.90;;;;;;4989139;28;20030;-71
2022/10/24 11:05:15;;;;;;;16.25;6.35;;;20.30;99.90;;;;;;4994138;28;21152;-70
2022/10/24 11:07:49;;;;;;;15.88;6.25;;;20.30;99.90;;;;;;4993306;28;20033;-70
2022/10/24 11:10:21;;;;;;;17.30;5.20;;;20.40;99.90;;;;;;4993443;28;20136;-70
2022/10/24 11:12:47;;;;;;;12.27;5.10;;;20.50;99.90;;;;;;4991726;28;20038;-71
2022/10/24 11:15:36;;;;;;;15.57;5.47;;;20.40;99.90;;;;;;4983465;28;20049;-70
2022/10/24 11:18:11;;;;;;;19.17;6.07;;;20.40;99.90;;;;;;4985851;28;20061;-71
2022/10/24 11:20:59;;;;;;;22.27;6.10;;;20.50;99.90;;;;;;4987715;28;20697;-70
2022/10/24 11:23:38;;;;;;;19.17;5.85;;;20.50;99.90;;;;;;4990122;28;20160;-71
2022/10/24 11:26:20;;;;;;;19.75;5.97;;;20.40;99.90;;;;;;4991342;28;20025;-70
2022/10/24 11:28:51;;;;;;;17.33;5.57;;;20.30;99.90;;;;;;4992895;28;20061;-70
2022/10/24 11:31:37;;;;;;;10.57;5.60;;;20.40;99.90;;;;;;4989776;28;20432;-70
2022/10/24 11:34:31;;;;;;;12.88;5.30;;;20.40;99.90;;;;;;4986319;28;20453;-70
2022/10/24 11:37:16;;;;;;;16.20;6.57;;;20.40;99.90;;;;;;4989027;28;20381;-70
2022/10/24 11:39:54;;;;;;;15.95;5.45;;;20.40;99.90;;;;;;4992118;28;20042;-69
2022/10/24 11:42:39;;;;;;;17.92;6.45;;;20.60;99.90;;;;;;4983144;28;20022;-69
2022/10/24 11:45:12;;;;;;;21.67;5.82;;;20.70;99.90;;;;;;4986080;28;20045;-69
2022/10/24 11:47:45;;;;;;;12.30;6.63;;;20.80;99.90;;;;;;4989453;28;20106;-69
2022/10/24 11:50:29;;;;;;;16.42;6.20;;;20.80;99.90;;;;;;4984398;28;20034;-69
2022/10/24 11:53:10;;;;;;;22.40;6.25;;;20.80;99.90;;;;;;4990535;28;20027;-69
2022/10/24 11:55:40;;;;;;;16.45;6.70;;;20.70;99.90;;;;;;4987844;28;20497;-70
2022/10/24 11:58:12;;;;;;;11.70;5.25;;;20.70;99.90;;;;;;4988385;28;20042;-70
2022/10/24 12:00:58;;;;;;;15.23;5.15;;;20.70;99.90;;;;;;4993592;28;20030;-70
2022/10/24 12:03:44;;;;;;;19.77;5.43;;;20.70;99.90;;;;;;4985648;28;20170;-70
2022/10/24 12:06:19;;;;;;;14.15;5.63;;;20.80;99.90;;;;;;4989006;28;20507;-70
2022/10/24 12:09:09;;;;;;;14.45;5.82;;;20.80;99.90;;;;;;4988069;28;20030;-70
2022/10/24 12:12:10;;;;;;;15.73;5.50;;;20.80;99.90;;;;;;4989166;28;20038;-70
2022/10/24 12:14:57;;;;;;;17.10;5.38;;;20.70;99.90;;;;;;4982631;28;20037;-70
2022/10/24 12:17:48;;;;;;;15.10;6.45;;;20.70;99.90;;;;;;4986655;28;20089;-70
2022/10/24 12:20:20;;;;;;;85.00;11.23;;;20.70;99.90;;;;;;4984367;28;20050;-70
2022/10/24 12:22:47;;;;;;;14.40;5.32;;;20.70;99.90;;;;;;4987020;28;20080;-70
2022/10/24 12:25:32;;;;;;;17.05;5.00;;;20.70;99.90;;;;;;4982315;28;20120;-70
2022/10/24 12:27:58;;;;;;;;;;;20.70;99.90;;;;;;4993971;28;20061;-70
2022/10/24 12:30:27;;;;;;;10.05;5.15;;;20.60;99.90;;;;;;4993649;28;20016;-70
2022/10/24 12:33:06;;;;;;;14.25;5.00;;;20.60;99.90;;;;;;4990415;28;20036;-70
2022/10/24 12:35:34;;;;;;;21.90;6.25;;;20.50;99.90;;;;;;4991881;28;20381;-70
2022/10/24 12:38:01;;;;;;;15.80;6.32;;;20.60;99.90;;;;;;4985853;28;20093;-70
2022/10/24 12:41:25;;;;;;;18.95;5.63;;;20.50;99.90;;;;;;4997223;28;20667;-70
2022/10/24 12:44:35;;;;;;;14.35;5.72;;;20.50;99.90;;;;;;5008387;28;20029;-70
2022/10/24 12:47:36;;;;;;;11.43;5.35;;;20.50;99.90;;;;;;4992288;28;20548;-70
2022/10/24 12:50:20;;;;;;;13.70;5.57;;;20.30;99.90;;;;;;4994516;28;20054;-70
2022/10/24 12:52:46;;;;;;;10.68;5.53;;;20.30;99.90;;;;;;4985213;28;20145;-70
2022/10/24 12:55:30;;;;;;;14.05;5.70;;;20.20;99.90;;;;;;4990613;28;20054;-70
2022/10/24 12:57:56;;;;;;;17.38;6.45;;;20.20;99.90;;;;;;4991816;28;20053;-70
2022/10/24 13:00:30;;;;;;;19.80;7.00;;;20.20;99.90;;;;;;4991260;28;20061;-70